createdAt,value
2017-08-08T00:00:29.384Z,6.57
2017-08-08T00:02:57.020Z,6.33
2017-08-08T00:05:24.613Z,6.33
2017-08-08T00:07:52.342Z,6.40
2017-08-08T00:10:19.952Z,5.80
2017-08-08T00:12:47.930Z,6.33
2017-08-08T00:15:15.531Z,6.33
2017-08-08T00:17:43.117Z,6.60
2017-08-08T00:20:11.360Z,6.37
2017-08-08T00:22:38.959Z,6.40
2017-08-08T00:25:06.585Z,6.30
2017-08-08T00:27:34.196Z,6.43
2017-08-08T00:30:01.846Z,6.87
2017-08-08T00:32:29.463Z,6.40
2017-08-08T00:34:57.412Z,6.23
2017-08-08T00:37:25.001Z,6.47
2017-08-08T00:39:52.638Z,6.07
2017-08-08T00:42:20.264Z,6.80
2017-08-08T00:44:47.860Z,6.80
2017-08-08T00:47:15.491Z,7.00
2017-08-08T00:49:43.089Z,6.60
2017-08-08T00:52:10.750Z,7.20
2017-08-08T00:54:38.379Z,7.60
2017-08-08T00:57:06.283Z,7.00
2017-08-08T00:59:33.855Z,7.70
2017-08-08T01:02:01.457Z,7.20
2017-08-08T01:04:29.096Z,6.80
2017-08-08T01:06:56.689Z,7.20
2017-08-08T01:09:24.682Z,7.60
2017-08-08T01:11:52.269Z,7.40
2017-08-08T01:14:19.873Z,7.70
2017-08-08T01:16:47.687Z,7.37
2017-08-08T01:19:15.286Z,7.40
2017-08-08T01:21:42.894Z,7.10
2017-08-08T01:24:10.506Z,7.30
2017-08-08T01:26:38.449Z,7.57
2017-08-08T01:29:06.057Z,7.87
2017-08-08T01:31:33.672Z,7.60
2017-08-08T01:34:01.330Z,8.13
2017-08-08T01:36:28.925Z,7.70
2017-08-08T01:38:56.572Z,7.70
2017-08-08T01:41:24.217Z,7.07
2017-08-08T01:43:51.840Z,8.50
2017-08-08T01:46:19.449Z,8.53
2017-08-08T01:48:47.604Z,7.93
2017-08-08T01:51:15.201Z,7.83
2017-08-08T01:53:42.835Z,8.10
2017-08-08T01:56:10.595Z,7.90
2017-08-08T01:58:38.180Z,7.77
2017-08-08T02:01:05.805Z,7.80
2017-08-08T02:03:33.431Z,8.40
2017-08-08T02:06:01.036Z,7.87
2017-08-08T02:08:28.740Z,8.13
2017-08-08T02:10:56.476Z,8.80
2017-08-08T02:13:24.082Z,8.30
2017-08-08T02:15:52.161Z,8.40
2017-08-08T02:18:19.854Z,8.20
2017-08-08T02:20:47.572Z,8.60
2017-08-08T02:23:15.188Z,7.57
2017-08-08T02:25:42.794Z,8.27
2017-08-08T02:28:10.449Z,8.33
2017-08-08T02:30:38.035Z,8.47
2017-08-08T02:33:05.656Z,8.80
2017-08-08T02:35:33.275Z,8.33
2017-08-08T02:38:01.248Z,7.73
2017-08-08T02:40:28.856Z,7.57
2017-08-08T02:42:56.470Z,8.43
2017-08-08T02:45:24.588Z,8.50
2017-08-08T02:47:52.214Z,8.73
2017-08-08T02:50:19.839Z,8.60
2017-08-08T02:52:47.431Z,8.43
2017-08-08T02:55:15.321Z,7.97
2017-08-08T02:57:43.108Z,8.67
2017-08-08T03:00:10.752Z,9.10
2017-08-08T03:02:38.379Z,8.63
2017-08-08T03:05:06.080Z,8.47
2017-08-08T03:07:33.721Z,8.60
2017-08-08T03:10:01.499Z,9.50
2017-08-08T03:12:29.433Z,8.40
2017-08-08T03:14:57.137Z,9.47
2017-08-08T03:17:24.767Z,9.10
2017-08-08T03:19:52.387Z,8.27
2017-08-08T03:22:19.994Z,9.70
2017-08-08T03:24:47.649Z,8.70
2017-08-08T03:27:16.186Z,9.20
2017-08-08T03:29:44.329Z,8.90
2017-08-08T03:32:11.954Z,9.10
2017-08-08T03:34:39.766Z,8.83
2017-08-08T03:37:07.470Z,8.67
2017-08-08T03:39:35.121Z,9.50
2017-08-08T03:42:02.747Z,9.67
2017-08-08T03:44:30.386Z,9.03
2017-08-08T03:46:58.030Z,9.13
2017-08-08T03:49:25.812Z,10.10
2017-08-08T03:51:53.789Z,9.80
2017-08-08T03:54:21.393Z,9.60
2017-08-08T03:56:48.992Z,9.23
2017-08-08T03:59:18.105Z,8.67
2017-08-08T04:01:45.718Z,10.10
2017-08-08T04:04:13.329Z,9.13
2017-08-08T04:06:40.988Z,9.57
2017-08-08T04:09:08.916Z,9.33
2017-08-08T04:11:36.539Z,9.00
2017-08-08T04:14:04.189Z,9.73
2017-08-08T04:16:31.820Z,9.23
2017-08-08T04:18:59.447Z,9.17
2017-08-08T04:21:27.060Z,9.37
2017-08-08T04:23:54.669Z,9.10
2017-08-08T04:26:22.409Z,8.77
2017-08-08T04:28:50.078Z,10.13
2017-08-08T04:31:18.106Z,9.23
2017-08-08T04:33:45.741Z,9.60
2017-08-08T04:36:13.354Z,9.30
2017-08-08T04:38:42.149Z,8.90
2017-08-08T04:41:09.843Z,8.83
2017-08-08T04:43:37.493Z,9.33
2017-08-08T04:46:05.110Z,9.17
2017-08-08T04:48:33.073Z,9.93
2017-08-08T04:51:00.764Z,9.37
2017-08-08T04:53:28.382Z,9.83
2017-08-08T04:55:56.025Z,9.70
2017-08-08T04:58:23.643Z,8.97
2017-08-08T05:00:51.722Z,9.00
2017-08-08T05:03:20.525Z,9.50
2017-08-08T05:05:48.240Z,11.40
2017-08-08T05:08:15.867Z,9.90
2017-08-08T05:10:43.595Z,9.13
2017-08-08T05:13:11.254Z,9.30
2017-08-08T05:15:38.892Z,9.30
2017-08-08T05:18:06.862Z,8.90
2017-08-08T05:20:34.488Z,8.90
2017-08-08T05:23:02.216Z,9.33
2017-08-08T05:25:29.850Z,9.53
2017-08-08T05:27:57.458Z,9.00
2017-08-08T05:30:25.082Z,9.20
2017-08-08T05:32:52.703Z,8.70
2017-08-08T05:35:20.704Z,9.60
2017-08-08T05:37:48.296Z,9.07
2017-08-08T05:40:15.909Z,9.30
2017-08-08T05:42:43.531Z,9.07
2017-08-08T05:45:11.177Z,9.27
2017-08-08T05:47:39.234Z,8.90
2017-08-08T05:50:06.949Z,8.50
2017-08-08T05:52:34.676Z,8.97
2017-08-08T05:55:02.441Z,8.50
2017-08-08T05:57:30.036Z,8.30
2017-08-08T05:59:58.252Z,8.17
2017-08-08T06:02:25.873Z,8.23
2017-08-08T06:04:53.484Z,8.57
2017-08-08T06:07:21.125Z,9.10
2017-08-08T06:09:48.725Z,9.20
2017-08-08T06:12:16.347Z,8.60
2017-08-08T06:14:43.948Z,8.50
2017-08-08T06:17:11.649Z,8.90
2017-08-08T06:19:39.540Z,8.93
2017-08-08T06:22:07.227Z,7.37
2017-08-08T06:24:34.865Z,9.07
2017-08-08T06:27:02.963Z,7.97
2017-08-08T06:29:30.590Z,7.37
2017-08-08T06:31:58.584Z,8.13
2017-08-08T06:34:26.209Z,7.97
2017-08-08T06:36:53.821Z,8.23
2017-08-08T06:39:21.456Z,8.60
2017-08-08T06:41:49.068Z,8.37
2017-08-08T06:44:16.719Z,7.80
2017-08-08T06:46:44.327Z,8.00
2017-08-08T06:49:12.283Z,6.93
2017-08-08T06:51:39.994Z,6.43
2017-08-08T06:54:07.602Z,7.30
2017-08-08T06:56:35.288Z,7.27
2017-08-08T06:59:02.925Z,7.60
2017-08-08T07:01:30.587Z,7.50
2017-08-08T07:03:58.228Z,7.70
2017-08-08T07:06:25.893Z,7.60
2017-08-08T07:08:53.888Z,6.60
2017-08-08T07:11:21.897Z,7.03
2017-08-08T07:13:49.534Z,7.60
2017-08-08T07:16:17.189Z,7.47
2017-08-08T07:18:44.855Z,7.90
2017-08-08T07:21:12.468Z,8.23
2017-08-08T07:23:40.248Z,7.03
2017-08-08T07:26:07.857Z,6.83
2017-08-08T07:28:35.923Z,7.67
2017-08-08T07:31:04.383Z,7.30
2017-08-08T07:33:32.095Z,7.50
2017-08-08T07:35:59.910Z,6.80
2017-08-08T07:38:27.537Z,8.17
2017-08-08T07:40:55.191Z,7.13
2017-08-08T07:43:22.815Z,7.10
2017-08-08T07:45:50.622Z,7.40
2017-08-08T07:48:18.266Z,7.63
2017-08-08T07:50:46.455Z,8.10
2017-08-08T07:53:15.542Z,7.60
2017-08-08T07:55:43.194Z,7.40
2017-08-08T07:58:10.836Z,8.03
2017-08-08T08:00:38.435Z,8.50
2017-08-08T08:03:06.216Z,7.60
2017-08-08T08:05:33.849Z,8.43
2017-08-08T08:08:01.533Z,6.93
2017-08-08T08:10:29.155Z,7.53
2017-08-08T08:12:57.137Z,7.50
2017-08-08T08:15:24.769Z,7.27
2017-08-08T08:17:52.531Z,7.03
2017-08-08T08:20:20.194Z,6.53
2017-08-08T08:22:47.817Z,6.73
2017-08-08T08:25:15.586Z,7.67
2017-08-08T08:27:43.393Z,7.10
2017-08-08T08:30:11.385Z,6.30
2017-08-08T08:32:38.996Z,6.50
2017-08-08T08:35:08.001Z,7.63
2017-08-08T08:37:35.644Z,6.80
2017-08-08T08:40:03.287Z,7.60
2017-08-08T08:42:30.918Z,6.80
2017-08-08T08:45:00.502Z,6.47
2017-08-08T08:47:28.261Z,6.47
2017-08-08T08:49:56.026Z,6.00
2017-08-08T08:52:24.062Z,7.10
2017-08-08T08:54:52.737Z,6.77
2017-08-08T08:57:20.364Z,6.23
2017-08-08T08:59:48.055Z,5.73
2017-08-08T09:02:15.679Z,6.33
2017-08-08T09:04:43.332Z,6.67
2017-08-08T09:07:11.058Z,5.90
2017-08-08T09:09:38.714Z,6.20
2017-08-08T09:12:06.489Z,7.07
2017-08-08T09:14:34.137Z,6.50
2017-08-08T09:17:01.743Z,6.30
2017-08-08T09:19:29.762Z,5.90
2017-08-08T09:21:57.378Z,6.37
2017-08-08T09:24:24.988Z,5.80
2017-08-08T09:26:53.076Z,5.63
2017-08-08T09:29:20.685Z,5.80
2017-08-08T09:31:48.465Z,5.37
2017-08-08T09:34:16.073Z,5.20
2017-08-08T09:36:43.978Z,5.23
2017-08-08T09:39:11.593Z,5.40
2017-08-08T09:41:39.217Z,5.60
2017-08-08T09:44:06.948Z,5.37
2017-08-08T09:46:34.553Z,5.80
2017-08-08T09:49:02.369Z,6.63
2017-08-08T09:51:30.012Z,5.70
2017-08-08T09:53:57.633Z,5.90
2017-08-08T09:56:25.231Z,6.20
2017-08-08T09:58:52.852Z,6.27
2017-08-08T10:01:20.469Z,6.00
2017-08-08T10:03:48.504Z,5.70
2017-08-08T10:06:16.124Z,5.03
2017-08-08T10:08:43.752Z,6.00
2017-08-08T10:11:11.523Z,4.97
2017-08-08T10:13:39.264Z,5.53
2017-08-08T10:16:06.893Z,4.60
2017-08-08T10:18:34.508Z,4.33
2017-08-08T10:21:02.469Z,5.47
2017-08-08T10:23:30.101Z,5.67
2017-08-08T10:25:57.721Z,4.83
2017-08-08T10:28:25.352Z,5.10
2017-08-08T10:30:52.971Z,5.90
2017-08-08T10:33:20.607Z,5.90
2017-08-08T10:35:48.236Z,5.10
2017-08-08T10:38:15.999Z,6.03
2017-08-08T10:40:43.771Z,5.53
2017-08-08T10:43:11.902Z,5.50
2017-08-08T10:45:39.503Z,5.40
2017-08-08T10:48:07.102Z,4.87
2017-08-08T10:50:34.768Z,5.00
2017-08-08T10:53:02.488Z,5.10
2017-08-08T10:55:30.181Z,4.90
2017-08-08T10:57:57.797Z,4.63
2017-08-08T11:00:25.753Z,4.10
2017-08-08T11:02:53.362Z,5.50
2017-08-08T11:05:20.995Z,6.30
2017-08-08T11:07:48.629Z,5.00
2017-08-08T11:10:16.259Z,5.50
2017-08-08T11:12:44.064Z,5.10
2017-08-08T11:15:11.671Z,5.63
2017-08-08T11:17:39.616Z,6.23
2017-08-08T11:20:07.220Z,5.37
2017-08-08T11:22:34.845Z,4.63
2017-08-08T11:25:02.607Z,4.87
2017-08-08T11:27:30.283Z,4.77
2017-08-08T11:29:57.914Z,4.20
2017-08-08T11:32:25.512Z,3.70
2017-08-08T11:34:53.133Z,3.90
2017-08-08T11:37:20.788Z,4.13
2017-08-08T11:39:48.750Z,4.03
2017-08-08T11:42:16.345Z,4.17
2017-08-08T11:44:44.109Z,4.33
2017-08-08T11:47:11.733Z,2.97
2017-08-08T11:49:39.357Z,3.60
2017-08-08T11:52:07.008Z,3.30
2017-08-08T11:54:34.639Z,2.80
2017-08-08T11:57:02.514Z,3.40
2017-08-08T11:59:30.108Z,3.70
2017-08-08T12:01:57.742Z,3.80
2017-08-08T12:04:25.407Z,3.57
2017-08-08T12:06:53.085Z,3.80
2017-08-08T12:09:20.737Z,4.10
2017-08-08T12:11:48.391Z,3.30
2017-08-08T12:14:16.053Z,3.80
2017-08-08T12:16:43.771Z,3.70
2017-08-08T12:19:11.825Z,3.20
2017-08-08T12:21:39.429Z,3.37
2017-08-08T12:24:07.035Z,2.80
2017-08-08T12:26:34.684Z,2.90
2017-08-08T12:29:02.436Z,3.00
2017-08-08T12:31:30.092Z,4.70
2017-08-08T12:33:57.715Z,3.70
2017-08-08T12:36:25.714Z,3.20
2017-08-08T12:38:53.347Z,3.17
2017-08-08T12:41:20.963Z,3.40
2017-08-08T12:43:48.626Z,4.07
2017-08-08T12:46:16.317Z,3.30
2017-08-08T12:48:44.163Z,3.30
2017-08-08T12:51:11.776Z,3.27
2017-08-08T12:53:39.781Z,2.80
2017-08-08T12:56:07.401Z,3.27
2017-08-08T12:58:35.020Z,3.20
2017-08-08T13:01:02.651Z,3.17
2017-08-08T13:03:30.304Z,3.60
2017-08-08T13:05:57.924Z,2.93
2017-08-08T13:08:25.554Z,3.00
2017-08-08T13:10:53.479Z,3.07
2017-08-08T13:13:21.111Z,2.80
2017-08-08T13:15:48.845Z,2.87
2017-08-08T13:18:16.500Z,3.23
2017-08-08T13:20:44.115Z,3.33
2017-08-08T13:23:11.767Z,3.70
2017-08-08T13:25:39.392Z,3.30
2017-08-08T13:28:07.327Z,3.13
2017-08-08T13:30:35.053Z,3.20
2017-08-08T13:33:02.824Z,2.87
2017-08-08T13:35:30.498Z,2.73
2017-08-08T13:37:58.162Z,2.73
2017-08-08T13:40:25.838Z,3.00
2017-08-08T13:42:53.443Z,2.67
2017-08-08T13:45:21.086Z,2.57
2017-08-08T13:47:49.235Z,2.87
2017-08-08T13:50:16.867Z,3.00
2017-08-08T13:52:44.505Z,3.13
2017-08-08T13:55:12.128Z,4.00
2017-08-08T13:57:39.775Z,3.20
2017-08-08T14:00:07.480Z,3.70
2017-08-08T14:02:35.534Z,4.40
2017-08-08T14:05:03.157Z,4.03
2017-08-08T14:07:30.807Z,4.00
2017-08-08T14:09:58.478Z,3.97
2017-08-08T14:12:26.104Z,4.97
2017-08-08T14:14:53.767Z,4.43
2017-08-08T14:17:21.391Z,4.67
2017-08-08T14:19:49.094Z,4.07
2017-08-08T14:22:16.717Z,4.20
2017-08-08T14:24:44.881Z,4.17
2017-08-08T14:27:12.580Z,4.40
2017-08-08T14:29:40.204Z,4.20
2017-08-08T14:32:07.877Z,5.27
2017-08-08T14:34:35.515Z,5.03
2017-08-08T14:37:03.148Z,5.50
2017-08-08T14:39:30.760Z,5.40
2017-08-08T14:41:58.868Z,5.93
2017-08-08T14:44:26.503Z,6.50
2017-08-08T14:46:54.129Z,5.83
2017-08-08T14:49:21.853Z,4.80
2017-08-08T14:51:49.548Z,5.10
2017-08-08T14:54:17.215Z,4.27
2017-08-08T14:56:44.828Z,4.53
2017-08-08T14:59:12.454Z,5.17
2017-08-08T15:01:40.549Z,4.50
2017-08-08T15:04:08.273Z,4.87
2017-08-08T15:06:35.878Z,4.10
2017-08-08T15:09:03.836Z,4.37
2017-08-08T15:11:31.459Z,3.90
2017-08-08T15:13:59.062Z,4.23
2017-08-08T15:16:26.702Z,3.50
2017-08-08T15:18:54.487Z,4.13
2017-08-08T15:21:22.599Z,3.80
2017-08-08T15:23:50.229Z,3.93
2017-08-08T15:26:17.956Z,3.70
2017-08-08T15:28:45.622Z,3.93
2017-08-08T15:31:13.252Z,4.20
2017-08-08T15:33:40.916Z,3.97
2017-08-08T15:36:08.551Z,4.40
2017-08-08T15:38:36.232Z,4.17
2017-08-08T15:41:03.851Z,3.40
2017-08-08T15:43:31.946Z,3.90
2017-08-08T15:46:00.232Z,4.77
2017-08-08T15:48:27.911Z,4.60
2017-08-08T15:50:55.668Z,3.97
2017-08-08T15:53:23.321Z,4.00
2017-08-08T15:55:50.989Z,4.20
2017-08-08T15:58:18.616Z,4.37
2017-08-08T16:00:46.272Z,4.07
2017-08-08T16:03:13.878Z,3.80
2017-08-08T16:05:41.514Z,3.60
2017-08-08T16:08:09.129Z,3.80
2017-08-08T16:10:37.140Z,3.30
2017-08-08T16:13:04.776Z,3.33
2017-08-08T16:15:32.402Z,3.00
2017-08-08T16:18:00.023Z,2.90
2017-08-08T16:20:27.717Z,2.80
2017-08-08T16:22:55.472Z,3.23
2017-08-08T16:25:23.086Z,3.53
2017-08-08T16:27:51.066Z,2.53
2017-08-08T16:30:18.701Z,2.50
2017-08-08T16:32:46.362Z,2.60
2017-08-08T16:35:13.999Z,3.03
2017-08-08T16:37:42.108Z,2.50
2017-08-08T16:40:09.759Z,2.43
2017-08-08T16:42:37.489Z,2.63
2017-08-08T16:45:05.123Z,2.30
2017-08-08T16:47:32.734Z,1.83
2017-08-08T16:50:00.752Z,2.30
2017-08-08T16:52:28.384Z,2.00
2017-08-08T16:54:56.010Z,2.30
2017-08-08T16:57:23.715Z,2.17
2017-08-08T16:59:51.346Z,1.70
2017-08-08T17:02:19.510Z,2.37
2017-08-08T17:04:47.156Z,2.10
2017-08-08T17:07:14.810Z,2.07
2017-08-08T17:09:42.423Z,2.60
2017-08-08T17:12:10.088Z,2.30
2017-08-08T17:14:37.853Z,2.40
2017-08-08T17:17:06.030Z,2.70
2017-08-08T17:19:33.642Z,2.77
2017-08-08T17:22:01.355Z,2.90
2017-08-08T17:24:29.016Z,2.97
2017-08-08T17:26:56.623Z,3.10
2017-08-08T17:29:24.403Z,3.30
2017-08-08T17:31:52.033Z,3.13
2017-08-08T17:34:21.101Z,3.20
2017-08-08T17:36:48.714Z,3.33
2017-08-08T17:39:16.348Z,3.30
2017-08-08T17:41:43.996Z,3.67
2017-08-08T17:44:11.718Z,3.30
2017-08-08T17:46:39.340Z,3.43
2017-08-08T17:49:06.972Z,3.13
2017-08-08T17:51:35.111Z,3.70
2017-08-08T17:54:02.848Z,3.53
2017-08-08T17:56:30.604Z,3.70
2017-08-08T17:58:58.219Z,3.60
2017-08-08T18:01:26.266Z,3.50
2017-08-08T18:03:54.025Z,3.60
2017-08-08T18:06:21.652Z,3.50
2017-08-08T18:08:49.320Z,4.17
2017-08-08T18:11:16.958Z,3.67
2017-08-08T18:13:44.594Z,3.90
2017-08-08T18:16:12.448Z,4.00
2017-08-08T18:18:40.096Z,3.60
2017-08-08T18:21:07.723Z,3.40
2017-08-08T18:23:35.397Z,3.67
2017-08-08T18:26:03.042Z,4.10
2017-08-08T18:28:31.175Z,4.20
2017-08-08T18:30:59.012Z,3.87
2017-08-08T18:33:26.663Z,3.60
2017-08-08T18:35:54.375Z,3.80
2017-08-08T18:38:21.968Z,3.53
2017-08-08T18:40:49.607Z,3.83
2017-08-08T18:43:17.307Z,3.67
2017-08-08T18:45:45.129Z,3.97
2017-08-08T18:48:12.866Z,3.40
2017-08-08T18:50:40.839Z,3.50
2017-08-08T18:53:09.315Z,3.27
2017-08-08T18:55:37.093Z,2.90
2017-08-08T18:58:04.740Z,2.87
2017-08-08T19:00:33.177Z,2.47
2017-08-08T19:03:00.960Z,2.70
2017-08-08T19:05:28.598Z,2.67
2017-08-08T19:07:56.323Z,2.30
2017-08-08T19:10:24.094Z,2.20
2017-08-08T19:12:51.870Z,2.20
2017-08-08T19:15:19.564Z,2.60
2017-08-08T19:17:47.343Z,2.37
2017-08-08T19:20:14.975Z,2.73
2017-08-08T19:22:42.883Z,2.70
2017-08-08T19:25:10.482Z,2.50
2017-08-08T19:27:38.176Z,2.47
2017-08-08T19:30:05.918Z,2.57
2017-08-08T19:32:33.560Z,2.97
2017-08-08T19:35:01.368Z,2.97
2017-08-08T19:37:28.988Z,2.80
2017-08-08T19:39:56.946Z,2.63
2017-08-08T19:42:24.548Z,2.40
2017-08-08T19:44:52.294Z,2.30
2017-08-08T19:47:19.962Z,3.07
2017-08-08T19:49:47.716Z,2.43
2017-08-08T19:52:15.410Z,2.27
2017-08-08T19:54:43.040Z,2.67
2017-08-08T19:57:10.928Z,1.70
2017-08-08T19:59:38.610Z,1.87
2017-08-08T20:02:06.270Z,2.80
2017-08-08T20:04:38.050Z,2.33
2017-08-08T20:07:05.756Z,2.03
2017-08-08T20:09:33.399Z,2.30
2017-08-08T20:12:01.486Z,2.03
2017-08-08T20:14:29.361Z,2.30
2017-08-08T20:16:57.023Z,1.87
2017-08-08T20:19:24.682Z,2.27
2017-08-08T20:21:52.702Z,1.90
2017-08-08T20:24:20.317Z,2.13
2017-08-08T20:26:47.952Z,2.30
2017-08-08T20:29:15.593Z,2.20
2017-08-08T20:31:43.210Z,2.30
2017-08-08T20:34:10.830Z,2.30
2017-08-08T20:36:38.432Z,2.50
2017-08-08T20:39:06.094Z,2.60
2017-08-08T20:41:33.726Z,1.97
2017-08-08T20:44:01.779Z,2.37
2017-08-08T20:46:29.578Z,2.57
2017-08-08T20:48:57.210Z,3.47
2017-08-08T20:51:24.950Z,2.93
2017-08-08T20:53:52.582Z,2.60
2017-08-08T20:56:20.214Z,2.77
2017-08-08T20:58:47.837Z,2.60
2017-08-08T21:01:15.506Z,3.07
2017-08-08T21:03:43.118Z,2.73
2017-08-08T21:06:10.758Z,2.70
2017-08-08T21:08:38.527Z,2.43
2017-08-08T21:11:06.169Z,2.70
2017-08-08T21:13:33.785Z,2.80
2017-08-08T21:16:01.531Z,3.40
2017-08-08T21:18:29.172Z,3.97
2017-08-08T21:20:57.879Z,4.60
2017-08-08T21:23:25.518Z,3.80
2017-08-08T21:25:53.217Z,3.93
2017-08-08T21:28:21.239Z,4.20
2017-08-08T21:30:48.850Z,4.10
2017-08-08T21:33:16.500Z,4.47
2017-08-08T21:35:44.151Z,5.10
2017-08-08T21:38:11.777Z,4.77
2017-08-08T21:40:39.408Z,4.40
2017-08-08T21:43:06.996Z,4.67
2017-08-08T21:45:34.639Z,4.83
2017-08-08T21:48:02.306Z,5.10
2017-08-08T21:50:30.211Z,4.17
2017-08-08T21:52:57.940Z,5.00
2017-08-08T21:55:25.554Z,4.20
2017-08-08T21:57:53.172Z,4.23
2017-08-08T22:00:20.808Z,4.50
2017-08-08T22:02:48.824Z,4.80
2017-08-08T22:05:16.433Z,3.97
2017-08-08T22:07:44.365Z,4.57
2017-08-08T22:10:11.965Z,4.70
2017-08-08T22:12:39.568Z,4.60
2017-08-08T22:15:07.280Z,4.93
2017-08-08T22:17:34.883Z,4.90
2017-08-08T22:20:02.511Z,4.67
2017-08-08T22:22:30.106Z,4.23
2017-08-08T22:24:57.744Z,4.60
2017-08-08T22:27:25.357Z,4.60
2017-08-08T22:29:53.302Z,4.23
2017-08-08T22:32:20.922Z,4.27
2017-08-08T22:34:48.540Z,4.57
2017-08-08T22:37:16.186Z,3.73
2017-08-08T22:39:43.934Z,3.80
2017-08-08T22:42:11.770Z,3.60
2017-08-08T22:44:39.351Z,4.23
2017-08-08T22:47:07.289Z,4.27
2017-08-08T22:49:34.941Z,4.53
2017-08-08T22:52:02.671Z,4.00
2017-08-08T22:54:30.313Z,3.60
2017-08-08T22:56:57.905Z,3.63
2017-08-08T22:59:25.595Z,3.60
2017-08-08T23:01:53.201Z,3.47
2017-08-08T23:04:21.192Z,3.10
2017-08-08T23:06:48.782Z,4.10
2017-08-08T23:09:16.452Z,3.47
2017-08-08T23:11:44.283Z,4.23
2017-08-08T23:14:11.877Z,3.50
2017-08-08T23:16:39.648Z,4.03
2017-08-08T23:19:07.263Z,4.10
2017-08-08T23:21:34.905Z,4.03
2017-08-08T23:24:02.515Z,3.60
2017-08-08T23:26:30.460Z,4.50
2017-08-08T23:28:58.051Z,3.60
2017-08-08T23:31:25.680Z,3.73
2017-08-08T23:33:53.308Z,3.70
2017-08-08T23:36:20.926Z,3.67
2017-08-08T23:38:48.544Z,4.00
2017-08-08T23:41:16.132Z,3.67
2017-08-08T23:43:43.763Z,4.10
2017-08-08T23:46:11.351Z,4.07
2017-08-08T23:48:38.995Z,3.73
2017-08-08T23:51:06.593Z,3.60
2017-08-08T23:53:34.208Z,4.13
2017-08-08T23:56:01.851Z,3.93
2017-08-08T23:58:30.284Z,4.10
